sensor_id;sensor_type;location;lat;lon;timestamp;P1;durP1;ratioP1;P2;durP2;ratioP2
82417;SDS011;75985;53.734;10.260;2024-02-21T00:00:18;42.15;;;25.40;;
82417;SDS011;75985;53.734;10.260;2024-02-21T00:03:23;41.98;;;25.23;;
82417;SDS011;75985;53.734;10.260;2024-02-21T00:06:27;39.83;;;23.27;;
82417;SDS011;75985;53.734;10.260;2024-02-21T00:09:32;44.50;;;25.32;;
82417;SDS011;75985;53.734;10.260;2024-02-21T00:12:37;51.53;;;25.85;;
82417;SDS011;75985;53.734;10.260;2024-02-21T00:15:41;45.05;;;26.68;;
82417;SDS011;75985;53.734;10.260;2024-02-21T00:18:46;40.28;;;24.25;;
82417;SDS011;75985;53.734;10.260;2024-02-21T00:21:50;43.28;;;25.50;;
82417;SDS011;75985;53.734;10.260;2024-02-21T00:24:55;44.05;;;25.62;;
82417;SDS011;75985;53.734;10.260;2024-02-21T00:28:00;41.00;;;24.65;;
82417;SDS011;75985;53.734;10.260;2024-02-21T00:31:05;47.03;;;25.97;;
82417;SDS011;75985;53.734;10.260;2024-02-21T00:34:09;35.28;;;22.87;;
82417;SDS011;75985;53.734;10.260;2024-02-21T00:37:15;37.17;;;24.50;;
82417;SDS011;75985;53.734;10.260;2024-02-21T00:40:21;50.20;;;26.05;;
82417;SDS011;75985;53.734;10.260;2024-02-21T00:43:26;42.45;;;24.77;;
82417;SDS011;75985;53.734;10.260;2024-02-21T00:46:30;38.17;;;24.07;;
82417;SDS011;75985;53.734;10.260;2024-02-21T00:49:35;48.45;;;25.30;;
82417;SDS011;75985;53.734;10.260;2024-02-21T00:52:40;41.10;;;25.25;;
82417;SDS011;75985;53.734;10.260;2024-02-21T00:55:45;37.65;;;24.27;;
82417;SDS011;75985;53.734;10.260;2024-02-21T00:58:49;38.35;;;25.12;;
82417;SDS011;75985;53.734;10.260;2024-02-21T01:01:54;38.55;;;26.82;;
82417;SDS011;75985;53.734;10.260;2024-02-21T01:04:58;52.78;;;27.40;;
82417;SDS011;75985;53.734;10.260;2024-02-21T01:08:04;43.63;;;26.87;;
82417;SDS011;75985;53.734;10.260;2024-02-21T01:11:09;49.27;;;28.05;;
82417;SDS011;75985;53.734;10.260;2024-02-21T01:14:13;46.88;;;27.48;;
82417;SDS011;75985;53.734;10.260;2024-02-21T01:17:18;42.83;;;25.62;;
82417;SDS011;75985;53.734;10.260;2024-02-21T01:20:22;51.25;;;28.70;;
82417;SDS011;75985;53.734;10.260;2024-02-21T01:23:27;50.70;;;30.95;;
82417;SDS011;75985;53.734;10.260;2024-02-21T01:26:31;56.95;;;30.80;;
82417;SDS011;75985;53.734;10.260;2024-02-21T01:29:36;54.95;;;30.88;;
82417;SDS011;75985;53.734;10.260;2024-02-21T01:32:41;53.85;;;31.10;;
82417;SDS011;75985;53.734;10.260;2024-02-21T01:35:45;48.35;;;32.67;;
82417;SDS011;75985;53.734;10.260;2024-02-21T01:38:50;60.03;;;32.13;;
82417;SDS011;75985;53.734;10.260;2024-02-21T01:41:54;54.20;;;32.30;;
82417;SDS011;75985;53.734;10.260;2024-02-21T01:44:59;50.25;;;32.70;;
82417;SDS011;75985;53.734;10.260;2024-02-21T01:48:04;49.77;;;30.88;;
82417;SDS011;75985;53.734;10.260;2024-02-21T01:51:09;49.88;;;32.58;;
82417;SDS011;75985;53.734;10.260;2024-02-21T01:54:13;55.20;;;31.42;;
82417;SDS011;75985;53.734;10.260;2024-02-21T01:57:20;49.03;;;31.12;;
82417;SDS011;75985;53.734;10.260;2024-02-21T02:00:26;54.80;;;31.87;;
82417;SDS011;75985;53.734;10.260;2024-02-21T02:03:31;52.65;;;31.27;;
82417;SDS011;75985;53.734;10.260;2024-02-21T02:06:36;49.10;;;29.23;;
82417;SDS011;75985;53.734;10.260;2024-02-21T02:09:41;53.13;;;31.10;;
82417;SDS011;75985;53.734;10.260;2024-02-21T02:12:46;47.78;;;28.60;;
82417;SDS011;75985;53.734;10.260;2024-02-21T02:15:50;49.35;;;30.08;;
82417;SDS011;75985;53.734;10.260;2024-02-21T02:18:55;47.10;;;28.00;;
82417;SDS011;75985;53.734;10.260;2024-02-21T02:22:10;40.38;;;26.02;;
82417;SDS011;75985;53.734;10.260;2024-02-21T02:25:16;40.03;;;25.20;;
82417;SDS011;75985;53.734;10.260;2024-02-21T02:28:21;39.42;;;23.98;;
82417;SDS011;75985;53.734;10.260;2024-02-21T02:31:26;37.93;;;24.70;;
82417;SDS011;75985;53.734;10.260;2024-02-21T02:34:30;44.35;;;26.50;;
82417;SDS011;75985;53.734;10.260;2024-02-21T02:37:35;42.20;;;26.35;;
82417;SDS011;75985;53.734;10.260;2024-02-21T02:40:41;42.98;;;26.50;;
82417;SDS011;75985;53.734;10.260;2024-02-21T02:43:45;39.58;;;26.33;;
82417;SDS011;75985;53.734;10.260;2024-02-21T02:46:50;44.73;;;28.12;;
82417;SDS011;75985;53.734;10.260;2024-02-21T02:49:54;42.00;;;25.20;;
82417;SDS011;75985;53.734;10.260;2024-02-21T02:52:59;46.48;;;26.82;;
82417;SDS011;75985;53.734;10.260;2024-02-21T02:56:04;38.38;;;27.52;;
82417;SDS011;75985;53.734;10.260;2024-02-21T02:59:08;52.95;;;31.60;;
82417;SDS011;75985;53.734;10.260;2024-02-21T03:02:13;47.23;;;31.23;;
82417;SDS011;75985;53.734;10.260;2024-02-21T03:05:18;50.10;;;30.27;;
82417;SDS011;75985;53.734;10.260;2024-02-21T03:08:24;49.58;;;30.57;;
82417;SDS011;75985;53.734;10.260;2024-02-21T03:11:29;53.95;;;33.75;;
82417;SDS011;75985;53.734;10.260;2024-02-21T03:14:33;50.17;;;34.15;;
82417;SDS011;75985;53.734;10.260;2024-02-21T03:17:38;56.83;;;33.95;;
82417;SDS011;75985;53.734;10.260;2024-02-21T03:20:43;55.28;;;33.75;;
82417;SDS011;75985;53.734;10.260;2024-02-21T03:23:47;53.23;;;33.75;;
82417;SDS011;75985;53.734;10.260;2024-02-21T03:26:52;52.70;;;32.15;;
82417;SDS011;75985;53.734;10.260;2024-02-21T03:29:56;57.55;;;35.25;;
82417;SDS011;75985;53.734;10.260;2024-02-21T03:33:01;51.18;;;33.58;;
82417;SDS011;75985;53.734;10.260;2024-02-21T03:36:06;49.58;;;33.78;;
82417;SDS011;75985;53.734;10.260;2024-02-21T03:39:12;56.70;;;34.73;;
82417;SDS011;75985;53.734;10.260;2024-02-21T03:42:16;60.88;;;34.95;;
82417;SDS011;75985;53.734;10.260;2024-02-21T03:45:21;49.50;;;34.05;;
82417;SDS011;75985;53.734;10.260;2024-02-21T03:48:25;53.95;;;33.70;;
82417;SDS011;75985;53.734;10.260;2024-02-21T03:51:30;58.42;;;35.08;;
82417;SDS011;75985;53.734;10.260;2024-02-21T03:54:34;48.70;;;33.33;;
82417;SDS011;75985;53.734;10.260;2024-02-21T03:57:39;52.83;;;33.25;;
82417;SDS011;75985;53.734;10.260;2024-02-21T04:00:43;46.77;;;30.52;;
82417;SDS011;75985;53.734;10.260;2024-02-21T04:03:48;51.88;;;32.50;;
82417;SDS011;75985;53.734;10.260;2024-02-21T04:06:52;48.70;;;30.70;;
82417;SDS011;75985;53.734;10.260;2024-02-21T04:09:57;48.15;;;29.30;;
82417;SDS011;75985;53.734;10.260;2024-02-21T04:13:02;52.03;;;32.78;;
82417;SDS011;75985;53.734;10.260;2024-02-21T04:16:07;47.17;;;30.10;;
82417;SDS011;75985;53.734;10.260;2024-02-21T04:19:11;53.05;;;30.25;;
82417;SDS011;75985;53.734;10.260;2024-02-21T04:22:16;43.95;;;29.72;;
82417;SDS011;75985;53.734;10.260;2024-02-21T04:25:20;48.17;;;29.50;;
82417;SDS011;75985;53.734;10.260;2024-02-21T04:28:25;44.85;;;27.87;;
82417;SDS011;75985;53.734;10.260;2024-02-21T04:31:31;46.83;;;29.75;;
82417;SDS011;75985;53.734;10.260;2024-02-21T04:34:36;43.83;;;27.87;;
82417;SDS011;75985;53.734;10.260;2024-02-21T04:37:41;42.95;;;27.02;;
82417;SDS011;75985;53.734;10.260;2024-02-21T04:40:45;45.67;;;26.97;;
82417;SDS011;75985;53.734;10.260;2024-02-21T04:43:50;41.42;;;27.17;;
82417;SDS011;75985;53.734;10.260;2024-02-21T04:46:55;39.35;;;27.15;;
82417;SDS011;75985;53.734;10.260;2024-02-21T04:49:59;42.23;;;26.93;;
82417;SDS011;75985;53.734;10.260;2024-02-21T04:53:04;40.92;;;25.75;;
82417;SDS011;75985;53.734;10.260;2024-02-21T04:56:08;38.75;;;25.20;;
82417;SDS011;75985;53.734;10.260;2024-02-21T04:59:13;37.50;;;24.72;;
82417;SDS011;75985;53.734;10.260;2024-02-21T05:02:18;41.00;;;26.25;;
82417;SDS011;75985;53.734;10.260;2024-02-21T05:05:24;39.63;;;26.12;;
82417;SDS011;75985;53.734;10.260;2024-02-21T05:08:29;37.15;;;26.02;;
82417;SDS011;75985;53.734;10.260;2024-02-21T05:11:33;39.38;;;24.72;;
82417;SDS011;75985;53.734;10.260;2024-02-21T05:14:38;35.25;;;21.42;;
82417;SDS011;75985;53.734;10.260;2024-02-21T05:17:43;35.35;;;22.15;;
82417;SDS011;75985;53.734;10.260;2024-02-21T05:20:48;31.65;;;20.97;;
82417;SDS011;75985;53.734;10.260;2024-02-21T05:23:52;32.95;;;20.82;;
82417;SDS011;75985;53.734;10.260;2024-02-21T05:26:57;26.23;;;18.73;;
82417;SDS011;75985;53.734;10.260;2024-02-21T05:30:01;28.87;;;17.77;;
82417;SDS011;75985;53.734;10.260;2024-02-21T05:33:06;31.62;;;19.12;;
82417;SDS011;75985;53.734;10.260;2024-02-21T05:36:11;26.37;;;17.87;;
82417;SDS011;75985;53.734;10.260;2024-02-21T05:39:16;25.60;;;17.67;;
82417;SDS011;75985;53.734;10.260;2024-02-21T05:42:21;24.90;;;16.80;;
82417;SDS011;75985;53.734;10.260;2024-02-21T05:45:26;25.37;;;16.15;;
82417;SDS011;75985;53.734;10.260;2024-02-21T05:48:30;26.68;;;15.78;;
82417;SDS011;75985;53.734;10.260;2024-02-21T05:51:35;20.82;;;14.63;;
82417;SDS011;75985;53.734;10.260;2024-02-21T05:54:39;18.82;;;13.13;;
82417;SDS011;75985;53.734;10.260;2024-02-21T05:57:44;17.05;;;12.53;;
82417;SDS011;75985;53.734;10.260;2024-02-21T06:00:49;17.02;;;12.30;;
82417;SDS011;75985;53.734;10.260;2024-02-21T06:03:53;15.38;;;11.48;;
82417;SDS011;75985;53.734;10.260;2024-02-21T06:06:58;14.00;;;11.12;;
82417;SDS011;75985;53.734;10.260;2024-02-21T06:10:02;16.25;;;11.73;;
82417;SDS011;75985;53.734;10.260;2024-02-21T06:13:07;17.85;;;12.07;;
82417;SDS011;75985;53.734;10.260;2024-02-21T06:16:12;15.85;;;11.28;;
82417;SDS011;75985;53.734;10.260;2024-02-21T06:19:16;15.15;;;10.93;;
82417;SDS011;75985;53.734;10.260;2024-02-21T06:22:21;16.60;;;11.45;;
82417;SDS011;75985;53.734;10.260;2024-02-21T06:25:25;13.90;;;10.72;;
82417;SDS011;75985;53.734;10.260;2024-02-21T06:28:30;13.62;;;9.83;;
82417;SDS011;75985;53.734;10.260;2024-02-21T06:31:35;14.18;;;8.93;;
82417;SDS011;75985;53.734;10.260;2024-02-21T06:34:39;11.90;;;8.03;;
82417;SDS011;75985;53.734;10.260;2024-02-21T06:37:44;6.90;;;5.83;;
82417;SDS011;75985;53.734;10.260;2024-02-21T06:40:50;9.20;;;5.20;;
82417;SDS011;75985;53.734;10.260;2024-02-21T06:43:56;7.50;;;4.90;;
82417;SDS011;75985;53.734;10.260;2024-02-21T06:47:01;9.78;;;4.62;;
82417;SDS011;75985;53.734;10.260;2024-02-21T06:50:06;6.75;;;4.25;;
82417;SDS011;75985;53.734;10.260;2024-02-21T06:53:11;8.20;;;4.37;;
82417;SDS011;75985;53.734;10.260;2024-02-21T06:56:16;8.95;;;5.05;;
82417;SDS011;75985;53.734;10.260;2024-02-21T06:59:21;10.48;;;4.17;;
82417;SDS011;75985;53.734;10.260;2024-02-21T07:02:25;7.97;;;4.30;;
82417;SDS011;75985;53.734;10.260;2024-02-21T07:05:30;7.25;;;3.40;;
82417;SDS011;75985;53.734;10.260;2024-02-21T07:08:34;7.08;;;3.92;;
82417;SDS011;75985;53.734;10.260;2024-02-21T07:11:40;7.35;;;4.03;;
82417;SDS011;75985;53.734;10.260;2024-02-21T07:14:44;5.00;;;3.37;;
82417;SDS011;75985;53.734;10.260;2024-02-21T07:17:49;4.15;;;3.70;;
82417;SDS011;75985;53.734;10.260;2024-02-21T07:20:53;4.25;;;3.52;;
82417;SDS011;75985;53.734;10.260;2024-02-21T07:23:58;8.80;;;3.87;;
82417;SDS011;75985;53.734;10.260;2024-02-21T07:27:03;4.20;;;3.77;;
82417;SDS011;75985;53.734;10.260;2024-02-21T07:30:07;6.87;;;4.05;;
82417;SDS011;75985;53.734;10.260;2024-02-21T07:33:12;5.35;;;3.75;;
82417;SDS011;75985;53.734;10.260;2024-02-21T07:36:25;4.95;;;4.03;;
82417;SDS011;75985;53.734;10.260;2024-02-21T07:39:35;8.95;;;4.40;;
82417;SDS011;75985;53.734;10.260;2024-02-21T07:42:41;9.43;;;4.58;;
82417;SDS011;75985;53.734;10.260;2024-02-21T07:45:46;5.78;;;3.58;;
82417;SDS011;75985;53.734;10.260;2024-02-21T07:48:51;7.75;;;5.35;;
82417;SDS011;75985;53.734;10.260;2024-02-21T07:51:56;12.63;;;4.83;;
82417;SDS011;75985;53.734;10.260;2024-02-21T07:55:00;7.40;;;4.12;;
82417;SDS011;75985;53.734;10.260;2024-02-21T07:58:06;10.50;;;5.15;;
82417;SDS011;75985;53.734;10.260;2024-02-21T08:01:10;15.10;;;6.55;;
82417;SDS011;75985;53.734;10.260;2024-02-21T08:04:15;11.20;;;5.83;;
82417;SDS011;75985;53.734;10.260;2024-02-21T08:07:19;15.55;;;6.80;;
82417;SDS011;75985;53.734;10.260;2024-02-21T08:10:24;11.70;;;6.15;;
82417;SDS011;75985;53.734;10.260;2024-02-21T08:13:28;13.48;;;5.92;;
82417;SDS011;75985;53.734;10.260;2024-02-21T08:16:34;13.55;;;5.72;;
82417;SDS011;75985;53.734;10.260;2024-02-21T08:19:38;17.10;;;6.00;;
82417;SDS011;75985;53.734;10.260;2024-02-21T08:22:43;17.10;;;6.70;;
82417;SDS011;75985;53.734;10.260;2024-02-21T08:25:47;16.37;;;6.35;;
82417;SDS011;75985;53.734;10.260;2024-02-21T08:28:52;19.15;;;7.33;;
82417;SDS011;75985;53.734;10.260;2024-02-21T08:31:56;15.40;;;5.92;;
82417;SDS011;75985;53.734;10.260;2024-02-21T08:35:01;16.52;;;6.72;;
82417;SDS011;75985;53.734;10.260;2024-02-21T08:38:07;14.87;;;6.08;;
82417;SDS011;75985;53.734;10.260;2024-02-21T08:41:12;17.00;;;5.17;;
82417;SDS011;75985;53.734;10.260;2024-02-21T08:44:17;13.88;;;5.50;;
82417;SDS011;75985;53.734;10.260;2024-02-21T08:47:22;20.35;;;6.20;;
82417;SDS011;75985;53.734;10.260;2024-02-21T08:50:26;21.37;;;5.92;;
82417;SDS011;75985;53.734;10.260;2024-02-21T08:53:31;14.80;;;4.60;;
82417;SDS011;75985;53.734;10.260;2024-02-21T08:56:36;23.80;;;5.28;;
82417;SDS011;75985;53.734;10.260;2024-02-21T08:59:40;17.32;;;5.47;;
82417;SDS011;75985;53.734;10.260;2024-02-21T09:02:45;23.38;;;4.87;;
82417;SDS011;75985;53.734;10.260;2024-02-21T09:05:49;22.62;;;4.47;;
82417;SDS011;75985;53.734;10.260;2024-02-21T09:08:56;16.23;;;4.75;;
82417;SDS011;75985;53.734;10.260;2024-02-21T09:12:01;17.23;;;4.55;;
82417;SDS011;75985;53.734;10.260;2024-02-21T09:15:07;19.12;;;4.97;;
82417;SDS011;75985;53.734;10.260;2024-02-21T09:18:12;22.30;;;5.45;;
82417;SDS011;75985;53.734;10.260;2024-02-21T09:21:17;20.68;;;4.92;;
82417;SDS011;75985;53.734;10.260;2024-02-21T09:24:22;25.80;;;4.85;;
82417;SDS011;75985;53.734;10.260;2024-02-21T09:27:27;15.45;;;4.47;;
82417;SDS011;75985;53.734;10.260;2024-02-21T09:30:32;17.27;;;4.25;;
82417;SDS011;75985;53.734;10.260;2024-02-21T09:33:36;17.62;;;3.95;;
82417;SDS011;75985;53.734;10.260;2024-02-21T09:36:41;16.40;;;4.47;;
82417;SDS011;75985;53.734;10.260;2024-02-21T09:39:47;16.85;;;4.17;;
82417;SDS011;75985;53.734;10.260;2024-02-21T09:42:56;16.40;;;3.95;;
82417;SDS011;75985;53.734;10.260;2024-02-21T09:46:18;15.80;;;4.47;;
82417;SDS011;75985;53.734;10.260;2024-02-21T09:49:29;15.57;;;4.13;;
82417;SDS011;75985;53.734;10.260;2024-02-21T09:52:35;18.15;;;3.52;;
82417;SDS011;75985;53.734;10.260;2024-02-21T09:55:41;16.17;;;3.47;;
82417;SDS011;75985;53.734;10.260;2024-02-21T09:58:48;16.75;;;4.15;;
82417;SDS011;75985;53.734;10.260;2024-02-21T10:01:53;14.83;;;3.60;;
82417;SDS011;75985;53.734;10.260;2024-02-21T10:04:57;12.85;;;3.37;;
82417;SDS011;75985;53.734;10.260;2024-02-21T10:08:03;17.48;;;3.85;;
82417;SDS011;75985;53.734;10.260;2024-02-21T10:11:08;14.10;;;3.80;;
82417;SDS011;75985;53.734;10.260;2024-02-21T10:14:12;9.60;;;2.67;;
82417;SDS011;75985;53.734;10.260;2024-02-21T10:17:18;10.60;;;3.80;;
82417;SDS011;75985;53.734;10.260;2024-02-21T10:20:22;16.73;;;3.92;;
82417;SDS011;75985;53.734;10.260;2024-02-21T10:23:27;15.70;;;3.70;;
82417;SDS011;75985;53.734;10.260;2024-02-21T10:26:32;9.40;;;2.80;;
82417;SDS011;75985;53.734;10.260;2024-02-21T10:29:37;12.73;;;4.25;;
82417;SDS011;75985;53.734;10.260;2024-02-21T10:32:53;11.78;;;3.75;;
82417;SDS011;75985;53.734;10.260;2024-02-21T10:36:07;7.53;;;2.80;;
82417;SDS011;75985;53.734;10.260;2024-02-21T10:39:14;6.90;;;2.67;;
82417;SDS011;75985;53.734;10.260;2024-02-21T10:42:20;8.58;;;2.90;;
82417;SDS011;75985;53.734;10.260;2024-02-21T10:45:36;8.05;;;2.42;;
82417;SDS011;75985;53.734;10.260;2024-02-21T10:48:41;6.05;;;3.08;;
82417;SDS011;75985;53.734;10.260;2024-02-21T10:51:47;8.88;;;2.58;;
82417;SDS011;75985;53.734;10.260;2024-02-21T10:54:56;3.85;;;2.67;;
82417;SDS011;75985;53.734;10.260;2024-02-21T10:58:03;6.95;;;3.40;;
82417;SDS011;75985;53.734;10.260;2024-02-21T11:01:10;4.35;;;3.00;;
82417;SDS011;75985;53.734;10.260;2024-02-21T11:04:17;6.80;;;3.30;;
82417;SDS011;75985;53.734;10.260;2024-02-21T11:07:23;6.20;;;3.42;;
82417;SDS011;75985;53.734;10.260;2024-02-21T11:10:28;4.45;;;3.10;;
82417;SDS011;75985;53.734;10.260;2024-02-21T11:13:36;3.58;;;3.27;;
82417;SDS011;75985;53.734;10.260;2024-02-21T11:16:41;6.72;;;5.10;;
82417;SDS011;75985;53.734;10.260;2024-02-21T11:19:46;8.70;;;7.05;;
82417;SDS011;75985;53.734;10.260;2024-02-21T11:22:51;7.87;;;7.08;;
82417;SDS011;75985;53.734;10.260;2024-02-21T11:26:04;10.03;;;7.40;;
82417;SDS011;75985;53.734;10.260;2024-02-21T11:29:10;10.90;;;8.35;;
82417;SDS011;75985;53.734;10.260;2024-02-21T11:32:16;13.35;;;9.88;;
82417;SDS011;75985;53.734;10.260;2024-02-21T11:35:24;11.93;;;9.25;;
82417;SDS011;75985;53.734;10.260;2024-02-21T11:38:30;20.02;;;14.43;;
82417;SDS011;75985;53.734;10.260;2024-02-21T11:41:35;19.70;;;16.20;;
82417;SDS011;75985;53.734;10.260;2024-02-21T11:44:39;27.45;;;19.77;;
82417;SDS011;75985;53.734;10.260;2024-02-21T11:47:45;33.18;;;22.07;;
82417;SDS011;75985;53.734;10.260;2024-02-21T11:50:53;28.75;;;20.23;;
82417;SDS011;75985;53.734;10.260;2024-02-21T11:53:59;29.57;;;21.50;;
82417;SDS011;75985;53.734;10.260;2024-02-21T11:57:03;32.70;;;23.27;;
82417;SDS011;75985;53.734;10.260;2024-02-21T12:00:18;34.27;;;24.65;;
82417;SDS011;75985;53.734;10.260;2024-02-21T12:03:23;33.50;;;23.77;;
82417;SDS011;75985;53.734;10.260;2024-02-21T12:06:28;35.20;;;23.90;;
82417;SDS011;75985;53.734;10.260;2024-02-21T12:09:33;32.73;;;23.40;;
82417;SDS011;75985;53.734;10.260;2024-02-21T12:12:38;29.48;;;22.42;;
82417;SDS011;75985;53.734;10.260;2024-02-21T12:15:46;33.85;;;22.60;;
82417;SDS011;75985;53.734;10.260;2024-02-21T12:18:52;30.68;;;20.85;;
82417;SDS011;75985;53.734;10.260;2024-02-21T12:21:58;32.35;;;21.40;;
82417;SDS011;75985;53.734;10.260;2024-02-21T12:25:04;28.05;;;20.62;;
82417;SDS011;75985;53.734;10.260;2024-02-21T12:28:10;25.15;;;18.10;;
82417;SDS011;75985;53.734;10.260;2024-02-21T12:31:15;23.77;;;17.00;;
82417;SDS011;75985;53.734;10.260;2024-02-21T12:34:20;25.77;;;16.80;;
82417;SDS011;75985;53.734;10.260;2024-02-21T12:37:26;27.15;;;17.17;;
82417;SDS011;75985;53.734;10.260;2024-02-21T12:40:31;25.40;;;17.05;;
82417;SDS011;75985;53.734;10.260;2024-02-21T12:43:36;25.50;;;16.42;;
82417;SDS011;75985;53.734;10.260;2024-02-21T12:46:41;22.93;;;15.68;;
82417;SDS011;75985;53.734;10.260;2024-02-21T12:49:45;31.57;;;17.48;;
82417;SDS011;75985;53.734;10.260;2024-02-21T12:52:50;22.82;;;16.90;;
82417;SDS011;75985;53.734;10.260;2024-02-21T12:55:55;20.80;;;14.90;;
82417;SDS011;75985;53.734;10.260;2024-02-21T12:58:59;33.05;;;17.23;;
82417;SDS011;75985;53.734;10.260;2024-02-21T13:02:04;23.98;;;15.93;;
82417;SDS011;75985;53.734;10.260;2024-02-21T13:05:11;23.40;;;16.73;;
82417;SDS011;75985;53.734;10.260;2024-02-21T13:08:16;26.57;;;17.20;;
82417;SDS011;75985;53.734;10.260;2024-02-21T13:11:22;25.20;;;17.37;;
82417;SDS011;75985;53.734;10.260;2024-02-21T13:14:28;25.90;;;17.15;;
82417;SDS011;75985;53.734;10.260;2024-02-21T13:17:34;25.02;;;15.72;;
82417;SDS011;75985;53.734;10.260;2024-02-21T13:20:39;22.93;;;15.93;;
82417;SDS011;75985;53.734;10.260;2024-02-21T13:23:43;31.33;;;17.52;;
82417;SDS011;75985;53.734;10.260;2024-02-21T13:26:48;21.73;;;16.27;;
82417;SDS011;75985;53.734;10.260;2024-02-21T13:29:53;23.45;;;16.67;;
82417;SDS011;75985;53.734;10.260;2024-02-21T13:32:57;35.88;;;19.42;;
82417;SDS011;75985;53.734;10.260;2024-02-21T13:36:02;27.22;;;17.52;;
82417;SDS011;75985;53.734;10.260;2024-02-21T13:39:06;26.48;;;17.17;;
82417;SDS011;75985;53.734;10.260;2024-02-21T13:42:11;25.60;;;17.32;;
82417;SDS011;75985;53.734;10.260;2024-02-21T13:45:16;21.07;;;15.75;;
82417;SDS011;75985;53.734;10.260;2024-02-21T13:48:22;23.42;;;14.95;;
82417;SDS011;75985;53.734;10.260;2024-02-21T13:51:27;25.00;;;16.30;;
82417;SDS011;75985;53.734;10.260;2024-02-21T13:54:31;22.75;;;15.80;;
82417;SDS011;75985;53.734;10.260;2024-02-21T13:57:36;25.80;;;16.42;;
82417;SDS011;75985;53.734;10.260;2024-02-21T14:00:41;26.97;;;17.62;;
82417;SDS011;75985;53.734;10.260;2024-02-21T14:03:46;25.68;;;17.70;;
82417;SDS011;75985;53.734;10.260;2024-02-21T14:06:50;20.95;;;14.78;;
82417;SDS011;75985;53.734;10.260;2024-02-21T14:09:55;20.32;;;14.63;;
82417;SDS011;75985;53.734;10.260;2024-02-21T14:13:00;19.00;;;15.23;;
82417;SDS011;75985;53.734;10.260;2024-02-21T14:16:08;17.77;;;13.80;;
82417;SDS011;75985;53.734;10.260;2024-02-21T14:19:15;15.72;;;12.40;;
82417;SDS011;75985;53.734;10.260;2024-02-21T14:22:21;13.55;;;11.25;;
82417;SDS011;75985;53.734;10.260;2024-02-21T14:25:26;15.83;;;12.55;;
82417;SDS011;75985;53.734;10.260;2024-02-21T14:28:30;13.65;;;10.60;;
82417;SDS011;75985;53.734;10.260;2024-02-21T14:31:37;11.55;;;9.53;;
82417;SDS011;75985;53.734;10.260;2024-02-21T14:34:41;10.72;;;8.83;;
82417;SDS011;75985;53.734;10.260;2024-02-21T14:37:46;11.75;;;10.08;;
82417;SDS011;75985;53.734;10.260;2024-02-21T14:40:51;11.48;;;9.23;;
82417;SDS011;75985;53.734;10.260;2024-02-21T14:43:56;12.70;;;9.55;;
82417;SDS011;75985;53.734;10.260;2024-02-21T14:47:02;10.48;;;9.40;;
82417;SDS011;75985;53.734;10.260;2024-02-21T14:50:07;10.10;;;8.70;;
82417;SDS011;75985;53.734;10.260;2024-02-21T14:53:12;9.05;;;8.00;;
82417;SDS011;75985;53.734;10.260;2024-02-21T14:56:17;9.95;;;8.58;;
82417;SDS011;75985;53.734;10.260;2024-02-21T14:59:21;13.62;;;10.32;;
82417;SDS011;75985;53.734;10.260;2024-02-21T15:02:26;10.38;;;9.08;;
82417;SDS011;75985;53.734;10.260;2024-02-21T15:05:30;10.70;;;9.55;;
82417;SDS011;75985;53.734;10.260;2024-02-21T15:08:36;11.93;;;9.38;;
82417;SDS011;75985;53.734;10.260;2024-02-21T15:11:40;10.75;;;9.65;;
82417;SDS011;75985;53.734;10.260;2024-02-21T15:14:45;10.98;;;9.25;;
82417;SDS011;75985;53.734;10.260;2024-02-21T15:17:50;12.37;;;10.80;;
82417;SDS011;75985;53.734;10.260;2024-02-21T15:20:54;15.63;;;11.20;;
82417;SDS011;75985;53.734;10.260;2024-02-21T15:23:59;12.73;;;10.13;;
82417;SDS011;75985;53.734;10.260;2024-02-21T15:27:04;11.15;;;9.70;;
82417;SDS011;75985;53.734;10.260;2024-02-21T15:30:09;10.30;;;9.30;;
82417;SDS011;75985;53.734;10.260;2024-02-21T15:33:14;11.50;;;10.43;;
82417;SDS011;75985;53.734;10.260;2024-02-21T15:36:20;10.72;;;9.63;;
82417;SDS011;75985;53.734;10.260;2024-02-21T15:39:25;12.93;;;10.45;;
82417;SDS011;75985;53.734;10.260;2024-02-21T15:42:30;12.63;;;10.80;;
82417;SDS011;75985;53.734;10.260;2024-02-21T15:45:35;13.32;;;11.22;;
82417;SDS011;75985;53.734;10.260;2024-02-21T15:48:41;10.55;;;9.53;;
82417;SDS011;75985;53.734;10.260;2024-02-21T15:51:46;11.25;;;9.50;;
82417;SDS011;75985;53.734;10.260;2024-02-21T15:54:50;13.10;;;10.50;;
82417;SDS011;75985;53.734;10.260;2024-02-21T15:57:55;10.63;;;9.23;;
82417;SDS011;75985;53.734;10.260;2024-02-21T16:01:00;13.70;;;10.40;;
82417;SDS011;75985;53.734;10.260;2024-02-21T16:04:05;12.05;;;10.60;;
82417;SDS011;75985;53.734;10.260;2024-02-21T16:07:10;20.50;;;14.70;;
82417;SDS011;75985;53.734;10.260;2024-02-21T16:10:15;14.53;;;12.63;;
82417;SDS011;75985;53.734;10.260;2024-02-21T16:13:19;18.55;;;13.68;;
82417;SDS011;75985;53.734;10.260;2024-02-21T16:16:24;13.35;;;11.12;;
82417;SDS011;75985;53.734;10.260;2024-02-21T16:19:28;13.32;;;11.57;;
82417;SDS011;75985;53.734;10.260;2024-02-21T16:22:33;12.73;;;11.43;;
82417;SDS011;75985;53.734;10.260;2024-02-21T16:25:37;11.90;;;10.70;;
82417;SDS011;75985;53.734;10.260;2024-02-21T16:28:42;16.87;;;12.40;;
82417;SDS011;75985;53.734;10.260;2024-02-21T16:31:46;14.45;;;12.05;;
82417;SDS011;75985;53.734;10.260;2024-02-21T16:34:51;14.63;;;11.57;;
82417;SDS011;75985;53.734;10.260;2024-02-21T16:37:55;11.70;;;10.55;;
82417;SDS011;75985;53.734;10.260;2024-02-21T16:41:00;19.45;;;13.20;;
82417;SDS011;75985;53.734;10.260;2024-02-21T16:44:05;15.83;;;12.05;;
82417;SDS011;75985;53.734;10.260;2024-02-21T16:47:10;11.78;;;10.60;;
82417;SDS011;75985;53.734;10.260;2024-02-21T16:50:14;12.65;;;10.15;;
82417;SDS011;75985;53.734;10.260;2024-02-21T16:53:19;9.80;;;8.83;;
82417;SDS011;75985;53.734;10.260;2024-02-21T16:56:23;14.78;;;11.25;;
82417;SDS011;75985;53.734;10.260;2024-02-21T16:59:28;15.32;;;10.88;;
82417;SDS011;75985;53.734;10.260;2024-02-21T17:02:33;13.03;;;11.28;;
82417;SDS011;75985;53.734;10.260;2024-02-21T17:05:38;11.90;;;10.13;;
82417;SDS011;75985;53.734;10.260;2024-02-21T17:08:44;11.55;;;10.38;;
82417;SDS011;75985;53.734;10.260;2024-02-21T17:11:49;10.85;;;9.75;;
82417;SDS011;75985;53.734;10.260;2024-02-21T17:14:54;10.03;;;8.50;;
82417;SDS011;75985;53.734;10.260;2024-02-21T17:17:59;10.10;;;7.95;;
82417;SDS011;75985;53.734;10.260;2024-02-21T17:21:03;9.45;;;8.45;;
82417;SDS011;75985;53.734;10.260;2024-02-21T17:24:08;7.80;;;6.87;;
82417;SDS011;75985;53.734;10.260;2024-02-21T17:27:13;9.10;;;8.05;;
82417;SDS011;75985;53.734;10.260;2024-02-21T17:30:17;8.05;;;7.25;;
82417;SDS011;75985;53.734;10.260;2024-02-21T17:33:22;7.40;;;6.70;;
82417;SDS011;75985;53.734;10.260;2024-02-21T17:36:26;6.95;;;6.35;;
82417;SDS011;75985;53.734;10.260;2024-02-21T17:39:31;6.92;;;6.15;;
82417;SDS011;75985;53.734;10.260;2024-02-21T17:42:35;7.95;;;6.30;;
82417;SDS011;75985;53.734;10.260;2024-02-21T17:45:40;6.35;;;5.80;;
82417;SDS011;75985;53.734;10.260;2024-02-21T17:48:45;6.60;;;5.45;;
82417;SDS011;75985;53.734;10.260;2024-02-21T17:51:49;7.10;;;5.20;;
82417;SDS011;75985;53.734;10.260;2024-02-21T17:54:54;6.83;;;5.37;;